Aktuell METAR/TAF ESNU/UME

300450Z AUTO 32005KT 9999 NCD 01/00 Q1009=

300230Z 3003/3012 VRB02KT CAVOK PROB40 3003/3005 0500 BCFG TEMPO 3008/3012 BKN014=
Källa: Luftfartsverket (aro.lfv.se)